createdAt,value
2023-04-25T00:00:50.009Z,73.37
2023-04-25T00:03:20.920Z,73.07
2023-04-25T00:05:52.756Z,72.28
2023-04-25T00:08:23.957Z,72.32
2023-04-25T00:10:54.569Z,72.15
2023-04-25T00:13:26.444Z,72.19
2023-04-25T00:16:00.054Z,71.80
2023-04-25T00:18:30.796Z,71.51
2023-04-25T00:21:01.537Z,71.38
2023-04-25T00:23:32.218Z,70.70
2023-04-25T00:26:03.295Z,70.85
2023-04-25T00:28:33.853Z,70.83
2023-04-25T00:31:04.555Z,71.31
2023-04-25T00:33:35.721Z,70.90
2023-04-25T00:36:06.458Z,70.93
2023-04-25T00:38:39.255Z,70.74
2023-04-25T00:41:09.948Z,71.06
2023-04-25T00:43:41.604Z,71.19
2023-04-25T00:46:12.257Z,71.49
2023-04-25T00:48:43.193Z,71.28
2023-04-25T00:51:16.796Z,71.25
2023-04-25T00:53:49.684Z,71.58
2023-04-25T00:56:22.533Z,71.58
2023-04-25T00:58:56.979Z,70.95
2023-04-25T01:01:29.923Z,71.09
2023-04-25T01:04:02.827Z,70.76
2023-04-25T01:06:34.411Z,71.33
2023-04-25T01:09:06.367Z,71.50
2023-04-25T01:11:38.570Z,71.06
2023-04-25T01:14:08.963Z,71.41
2023-04-25T01:16:39.610Z,71.38
2023-04-25T01:19:15.115Z,71.76
2023-04-25T01:21:46.637Z,71.36
2023-04-25T01:24:17.710Z,71.55
2023-04-25T01:26:50.078Z,71.97
2023-04-25T01:29:24.915Z,71.75
2023-04-25T01:31:55.728Z,71.29
2023-04-25T01:34:27.611Z,71.72
2023-04-25T01:37:00.358Z,71.93
2023-04-25T01:39:31.335Z,71.67
2023-04-25T01:42:02.734Z,71.46
2023-04-25T01:44:33.521Z,71.70
2023-04-25T01:47:04.260Z,71.59
2023-04-25T01:49:35.351Z,71.67
2023-04-25T01:52:07.153Z,71.92
2023-04-25T01:54:38.607Z,71.61
2023-04-25T01:57:09.246Z,71.74
2023-04-25T01:59:40.022Z,71.82
2023-04-25T02:02:10.789Z,71.70
2023-04-25T02:04:41.514Z,71.72
2023-04-25T02:07:12.240Z,71.52
2023-04-25T02:09:43.014Z,71.50
2023-04-25T02:12:14.680Z,71.66
2023-04-25T02:14:45.405Z,71.99
2023-04-25T02:17:17.645Z,72.54
2023-04-25T02:19:48.168Z,72.27
2023-04-25T02:22:18.800Z,72.44
2023-04-25T02:24:49.386Z,73.03
2023-04-25T02:27:19.984Z,72.48
2023-04-25T02:29:51.188Z,72.05
2023-04-25T02:32:21.844Z,72.15
2023-04-25T02:34:53.421Z,72.52
2023-04-25T02:37:24.389Z,72.35
2023-04-25T02:39:55.047Z,72.40
2023-04-25T02:42:25.957Z,71.84
2023-04-25T02:44:57.788Z,72.18
2023-04-25T02:47:28.485Z,72.06
2023-04-25T02:49:59.297Z,72.04
2023-04-25T02:52:29.849Z,72.05
2023-04-25T02:55:00.856Z,71.83
2023-04-25T02:57:31.667Z,72.36
2023-04-25T03:00:02.217Z,72.12
2023-04-25T03:02:33.009Z,72.34
2023-04-25T03:05:04.479Z,72.61
2023-04-25T03:07:35.087Z,72.43
2023-04-25T03:10:07.067Z,72.43
2023-04-25T03:12:37.631Z,72.87
2023-04-25T03:15:08.711Z,72.43
2023-04-25T03:17:41.044Z,72.79
2023-04-25T03:20:13.113Z,73.31
2023-04-25T03:22:43.773Z,72.63
2023-04-25T03:25:15.806Z,72.70
2023-04-25T03:27:47.414Z,72.70
2023-04-25T03:30:18.230Z,72.98
2023-04-25T03:32:48.766Z,73.12
2023-04-25T03:35:19.435Z,72.91
2023-04-25T03:37:51.062Z,73.18
2023-04-25T03:40:23.035Z,72.70
2023-04-25T03:42:54.457Z,72.69
2023-04-25T03:45:25.482Z,73.00
2023-04-25T03:47:56.332Z,72.76
2023-04-25T03:50:27.831Z,73.05
2023-04-25T03:52:58.638Z,73.41
2023-04-25T03:55:29.788Z,73.47
2023-04-25T03:58:01.155Z,73.07
2023-04-25T04:00:31.755Z,73.08
2023-04-25T04:03:02.587Z,73.24
2023-04-25T04:05:33.690Z,73.65
2023-04-25T04:08:04.826Z,73.56
2023-04-25T04:10:35.710Z,73.91
2023-04-25T04:13:08.895Z,73.02
2023-04-25T04:15:39.742Z,73.14
2023-04-25T04:18:10.812Z,73.09
2023-04-25T04:20:43.046Z,73.17
2023-04-25T04:23:13.981Z,72.97
2023-04-25T04:25:46.765Z,72.90
2023-04-25T04:28:17.440Z,72.78
2023-04-25T04:30:48.351Z,72.91
2023-04-25T04:33:20.781Z,72.76
2023-04-25T04:35:54.403Z,72.81
2023-04-25T04:38:26.432Z,72.46
2023-04-25T04:40:57.182Z,72.63
2023-04-25T04:43:29.634Z,72.64
2023-04-25T04:46:04.526Z,72.59
2023-04-25T04:48:38.895Z,72.26
2023-04-25T04:51:09.620Z,72.35
2023-04-25T04:53:40.268Z,72.35
2023-04-25T04:56:10.906Z,72.53
2023-04-25T04:58:41.707Z,72.25
2023-04-25T05:01:13.320Z,72.33
2023-04-25T05:03:49.739Z,72.61
2023-04-25T05:06:21.631Z,72.62
2023-04-25T05:08:52.811Z,72.82
2023-04-25T05:11:24.738Z,72.82
2023-04-25T05:13:55.682Z,72.50
2023-04-25T05:16:31.485Z,72.77
2023-04-25T05:19:04.586Z,72.74
2023-04-25T05:21:35.538Z,72.95
2023-04-25T05:24:07.141Z,72.62
2023-04-25T05:26:39.222Z,72.43
2023-04-25T05:29:10.985Z,71.99
2023-04-25T05:31:41.552Z,72.17
2023-04-25T05:34:12.645Z,72.61
2023-04-25T05:36:43.155Z,72.65
2023-04-25T05:39:14.511Z,72.74
2023-04-25T05:41:45.713Z,73.14
2023-04-25T05:44:17.020Z,72.95
2023-04-25T05:46:48.683Z,72.92
2023-04-25T05:49:19.771Z,72.57
2023-04-25T05:51:50.704Z,72.86
2023-04-25T05:54:22.451Z,73.37
2023-04-25T05:56:53.504Z,73.57
2023-04-25T05:59:24.017Z,73.10
2023-04-25T06:01:55.057Z,73.42
2023-04-25T06:04:26.000Z,73.41
2023-04-25T06:06:58.303Z,73.62
2023-04-25T06:09:28.865Z,73.53
2023-04-25T06:12:01.112Z,73.60
2023-04-25T06:14:31.652Z,73.12
2023-04-25T06:17:03.901Z,72.74
2023-04-25T06:19:37.890Z,73.05
2023-04-25T06:22:09.667Z,73.05
2023-04-25T06:24:47.482Z,72.86
2023-04-25T06:27:18.089Z,73.50
2023-04-25T06:29:48.627Z,74.06
2023-04-25T06:32:19.656Z,73.96
2023-04-25T06:34:52.649Z,73.81
2023-04-25T06:37:23.163Z,73.51
2023-04-25T06:39:53.735Z,73.79
2023-04-25T06:42:24.305Z,74.32
2023-04-25T06:44:54.857Z,73.90
2023-04-25T06:47:25.502Z,74.54
2023-04-25T06:49:56.037Z,74.91
2023-04-25T06:52:26.795Z,75.01
2023-04-25T06:54:57.344Z,73.87
2023-04-25T06:57:27.812Z,75.00
2023-04-25T06:59:59.681Z,74.96
2023-04-25T07:02:31.893Z,74.93
2023-04-25T07:05:04.263Z,74.29
2023-04-25T07:07:34.924Z,74.85
2023-04-25T07:10:06.617Z,75.32
2023-04-25T07:12:37.196Z,76.20
2023-04-25T07:15:10.507Z,76.10
2023-04-25T07:17:41.349Z,75.98
2023-04-25T07:20:12.747Z,75.86
2023-04-25T07:22:43.997Z,75.19
2023-04-25T07:25:15.225Z,74.57
2023-04-25T07:27:45.943Z,74.63
2023-04-25T07:30:16.969Z,74.63
2023-04-25T07:32:48.102Z,74.02
2023-04-25T07:35:20.457Z,73.20
2023-04-25T07:37:54.027Z,72.20
2023-04-25T07:40:26.106Z,71.22
2023-04-25T07:42:56.646Z,71.64
2023-04-25T07:45:28.368Z,71.24
2023-04-25T07:47:59.210Z,70.88
2023-04-25T07:50:29.954Z,70.75
2023-04-25T07:53:00.754Z,70.56
2023-04-25T07:55:31.450Z,71.24
2023-04-25T07:58:02.043Z,71.08
2023-04-25T08:00:34.239Z,70.22
2023-04-25T08:03:05.247Z,68.98
2023-04-25T08:05:37.068Z,67.89
2023-04-25T08:08:07.832Z,66.91
2023-04-25T08:10:38.306Z,65.94
2023-04-25T08:13:08.919Z,66.79
2023-04-25T08:15:41.689Z,66.88
2023-04-25T08:18:15.047Z,67.91
2023-04-25T08:20:46.111Z,67.78
2023-04-25T08:23:16.624Z,66.23
2023-04-25T08:25:47.452Z,64.42
2023-04-25T08:28:18.025Z,62.52
2023-04-25T08:30:48.525Z,62.42
2023-04-25T08:33:19.124Z,62.23
2023-04-25T08:35:50.055Z,61.70
2023-04-25T08:38:20.924Z,62.04
2023-04-25T08:40:56.746Z,61.14
2023-04-25T08:43:27.522Z,59.97
2023-04-25T08:46:02.964Z,59.01
2023-04-25T08:48:36.005Z,58.27
2023-04-25T08:53:44.120Z,57.10
2023-04-25T08:56:17.750Z,56.95
2023-04-25T08:58:51.718Z,57.19
2023-04-25T09:01:23.584Z,56.45
2023-04-25T09:03:55.730Z,56.87
2023-04-25T09:06:28.776Z,55.08
2023-04-25T09:09:07.132Z,53.71
2023-04-25T09:11:40.217Z,53.22
2023-04-25T09:14:22.966Z,53.08
2023-04-25T09:17:02.259Z,52.02
2023-04-25T09:19:40.932Z,52.62
2023-04-25T09:22:11.138Z,52.36
2023-04-25T09:24:45.324Z,52.73
2023-04-25T09:27:21.729Z,53.35
2023-04-25T09:29:55.346Z,54.15
2023-04-25T09:32:27.039Z,52.88
2023-04-25T09:34:59.476Z,50.49
2023-04-25T09:37:31.958Z,49.23
2023-04-25T09:40:11.087Z,48.18
2023-04-25T09:42:43.398Z,47.44
2023-04-25T09:45:16.070Z,47.93
2023-04-25T09:47:48.708Z,47.71
2023-04-25T09:50:21.386Z,47.09
2023-04-25T09:53:00.617Z,47.54
2023-04-25T09:55:32.818Z,49.33
2023-04-25T09:58:08.047Z,48.41
2023-04-25T10:00:40.390Z,47.65
2023-04-25T10:03:12.013Z,46.28
2023-04-25T10:05:44.751Z,46.55
2023-04-25T10:08:17.375Z,46.55
2023-04-25T10:10:51.767Z,47.77
2023-04-25T10:13:22.406Z,48.95
2023-04-25T10:15:55.882Z,47.18
2023-04-25T10:18:28.802Z,45.95
2023-04-25T10:21:02.299Z,45.96
2023-04-25T10:23:35.434Z,46.66
2023-04-25T10:26:06.560Z,46.55
2023-04-25T10:28:42.981Z,46.72
2023-04-25T10:31:15.098Z,47.97
2023-04-25T10:33:45.741Z,48.47
2023-04-25T10:36:18.829Z,47.19
2023-04-25T10:38:55.274Z,46.31
2023-04-25T10:41:26.074Z,45.97
2023-04-25T10:44:03.191Z,46.86
2023-04-25T10:46:37.022Z,47.34
2023-04-25T10:49:12.071Z,47.99
2023-04-25T10:54:20.877Z,46.32
2023-04-25T10:56:52.452Z,46.04
2023-04-25T10:59:26.052Z,46.66
2023-04-25T11:01:57.674Z,46.97
2023-04-25T11:04:35.629Z,46.49
2023-04-25T11:07:12.234Z,46.18
2023-04-25T11:09:43.393Z,47.15
2023-04-25T11:12:18.083Z,47.82
2023-04-25T11:14:50.109Z,50.00
2023-04-25T11:17:21.171Z,51.08
2023-04-25T11:19:52.017Z,51.52
2023-04-25T11:22:24.242Z,50.87
2023-04-25T11:24:56.189Z,49.64
2023-04-25T11:27:28.770Z,49.16
2023-04-25T11:29:59.292Z,48.02
2023-04-25T11:32:31.494Z,46.60
2023-04-25T11:35:02.300Z,45.52
2023-04-25T11:37:35.263Z,45.13
2023-04-25T11:40:08.965Z,44.65
2023-04-25T11:42:40.884Z,44.57
2023-04-25T11:45:13.089Z,44.10
2023-04-25T11:47:43.739Z,44.36
2023-04-25T11:50:15.212Z,44.52
2023-04-25T11:52:47.873Z,43.87
2023-04-25T11:55:21.260Z,44.37
2023-04-25T11:57:53.065Z,44.03
2023-04-25T12:00:24.401Z,44.17
2023-04-25T12:02:59.390Z,43.46
2023-04-25T12:05:35.609Z,42.80
2023-04-25T12:08:13.663Z,43.23
2023-04-25T12:10:48.823Z,44.45
2023-04-25T12:13:28.913Z,46.36
2023-04-25T12:15:59.709Z,46.76
2023-04-25T12:18:30.330Z,45.80
2023-04-25T12:21:01.167Z,44.55
2023-04-25T12:23:32.538Z,45.09
2023-04-25T12:26:03.739Z,44.39
2023-04-25T12:28:35.386Z,44.17
2023-04-25T12:31:09.390Z,43.97
2023-04-25T12:33:41.107Z,43.64
2023-04-25T12:36:13.346Z,42.71
2023-04-25T12:38:44.473Z,44.45
2023-04-25T12:41:15.796Z,44.06
2023-04-25T12:43:46.334Z,43.88
2023-04-25T12:46:17.057Z,43.74
2023-04-25T12:48:47.525Z,43.34
2023-04-25T12:51:18.639Z,42.73
2023-04-25T12:53:49.202Z,42.26
2023-04-25T12:56:21.473Z,42.61
2023-04-25T12:58:52.403Z,42.79
2023-04-25T13:01:25.029Z,43.23
2023-04-25T13:03:55.809Z,42.31
2023-04-25T13:06:27.291Z,44.12
2023-04-25T13:08:57.953Z,43.57
2023-04-25T13:14:00.929Z,43.46
2023-04-25T13:16:31.557Z,43.97
2023-04-25T13:19:02.102Z,42.25
2023-04-25T13:21:34.489Z,42.37
2023-04-25T13:24:08.209Z,43.11
2023-04-25T13:26:38.719Z,43.52
2023-04-25T13:29:09.588Z,43.53
2023-04-25T13:31:40.272Z,43.69
2023-04-25T13:34:12.788Z,44.44
2023-04-25T13:36:43.261Z,45.03
2023-04-25T13:39:14.415Z,46.25
2023-04-25T13:41:46.577Z,46.82
2023-04-25T13:44:17.480Z,47.05
2023-04-25T13:46:48.250Z,47.36
2023-04-25T13:49:19.229Z,46.33
2023-04-25T13:51:51.336Z,45.64
2023-04-25T13:54:21.706Z,46.54
2023-04-25T13:56:53.381Z,47.00
2023-04-25T13:59:24.350Z,46.94
2023-04-25T14:01:57.377Z,47.30
2023-04-25T14:04:28.700Z,47.12
2023-04-25T14:06:59.823Z,47.34
2023-04-25T14:09:30.462Z,47.56
2023-04-25T14:12:01.621Z,48.02
2023-04-25T14:14:32.129Z,47.76
2023-04-25T14:17:02.682Z,47.26
2023-04-25T14:19:33.166Z,46.64
2023-04-25T14:22:03.687Z,46.19
2023-04-25T14:24:35.623Z,45.74
2023-04-25T14:27:06.273Z,46.18
2023-04-25T14:29:37.190Z,46.19
2023-04-25T14:32:07.677Z,46.36
2023-04-25T14:34:38.193Z,46.88
2023-04-25T14:37:08.760Z,47.08
2023-04-25T14:39:39.257Z,46.59
2023-04-25T14:42:10.083Z,46.57
2023-04-25T14:44:40.704Z,47.05
2023-04-25T14:47:11.823Z,47.12
2023-04-25T14:49:42.480Z,47.72
2023-04-25T14:52:13.126Z,48.61
2023-04-25T14:54:43.550Z,49.93
2023-04-25T14:57:14.140Z,51.55
2023-04-25T14:59:44.936Z,52.69
2023-04-25T15:02:15.624Z,53.38
2023-04-25T15:04:46.720Z,53.57
2023-04-25T15:07:18.585Z,53.18
2023-04-25T15:09:49.975Z,53.12
2023-04-25T15:12:21.006Z,53.35
2023-04-25T15:14:51.724Z,52.73
2023-04-25T15:17:22.267Z,52.56
2023-04-25T15:19:52.829Z,51.76
2023-04-25T15:22:23.389Z,50.79
2023-04-25T15:24:54.288Z,50.21
2023-04-25T15:27:24.851Z,48.68
2023-04-25T15:29:56.303Z,47.90
2023-04-25T15:32:27.322Z,47.44
2023-04-25T15:34:57.980Z,47.35
2023-04-25T15:37:28.468Z,47.50
2023-04-25T15:40:18.401Z,48.12
2023-04-25T15:42:56.531Z,48.42
2023-04-25T15:45:27.982Z,48.61
2023-04-25T15:47:58.685Z,49.86
2023-04-25T15:50:30.776Z,50.53
2023-04-25T15:53:02.116Z,50.73
2023-04-25T15:58:23.260Z,50.49
2023-04-25T16:00:56.598Z,50.23
2023-04-25T16:03:28.308Z,49.14
2023-04-25T16:06:36.869Z,49.15
2023-04-25T16:09:07.579Z,47.33
2023-04-25T16:11:40.187Z,47.22
2023-04-25T16:14:10.863Z,47.40
2023-04-25T16:16:44.945Z,47.54
2023-04-25T16:19:18.506Z,47.96
2023-04-25T16:21:50.657Z,47.03
2023-04-25T16:24:21.590Z,47.00
2023-04-25T16:26:53.418Z,47.03
2023-04-25T16:29:24.032Z,46.82
2023-04-25T16:31:56.089Z,47.45
2023-04-25T16:34:28.262Z,48.27
2023-04-25T16:37:01.373Z,48.19
2023-04-25T16:39:31.804Z,48.26
2023-04-25T16:42:04.104Z,48.19
2023-04-25T16:44:35.339Z,47.71
2023-04-25T16:47:06.242Z,47.83
2023-04-25T16:49:38.678Z,47.74
2023-04-25T16:52:10.786Z,47.60
2023-04-25T16:54:43.860Z,47.44
2023-04-25T16:57:14.644Z,47.68
2023-04-25T16:59:45.932Z,48.06
2023-04-25T17:02:17.124Z,48.42
2023-04-25T17:04:54.654Z,48.48
2023-04-25T17:07:23.208Z,48.84
2023-04-25T17:09:55.558Z,49.07
2023-04-25T17:12:26.394Z,48.81
2023-04-25T17:14:57.695Z,48.23
2023-04-25T17:17:28.470Z,46.76
2023-04-25T17:19:59.415Z,44.89
2023-04-25T17:22:33.691Z,45.56
2023-04-25T17:25:07.072Z,47.15
2023-04-25T17:27:39.961Z,48.46
2023-04-25T17:30:12.634Z,50.23
2023-04-25T17:32:45.324Z,50.85
2023-04-25T17:35:17.529Z,51.74
2023-04-25T17:37:48.742Z,51.64
2023-04-25T17:40:20.801Z,52.18
2023-04-25T17:42:52.133Z,52.84
2023-04-25T17:45:22.728Z,53.16
2023-04-25T17:47:54.598Z,54.19
2023-04-25T17:50:26.671Z,54.55
2023-04-25T17:52:57.330Z,54.87
2023-04-25T17:55:29.237Z,54.95
2023-04-25T17:58:00.096Z,55.14
2023-04-25T18:00:33.599Z,55.78
2023-04-25T18:03:04.864Z,55.78
2023-04-25T18:05:37.816Z,55.69
2023-04-25T18:08:08.571Z,56.27
2023-04-25T18:10:39.360Z,56.04
2023-04-25T18:13:09.863Z,56.08
2023-04-25T18:15:50.398Z,56.59
2023-04-25T18:18:22.728Z,56.14
2023-04-25T18:20:53.796Z,56.68
2023-04-25T18:23:26.049Z,56.66
2023-04-25T18:25:58.096Z,57.18
2023-04-25T18:28:29.257Z,58.11
2023-04-25T18:31:01.251Z,59.18
2023-04-25T18:33:32.991Z,59.83
2023-04-25T18:36:03.471Z,60.68
2023-04-25T18:38:35.877Z,60.99
2023-04-25T18:41:33.690Z,61.82
2023-04-25T18:43:39.229Z,62.02
2023-04-25T18:46:09.854Z,62.79
2023-04-25T18:48:42.850Z,62.94
2023-04-25T18:51:13.561Z,61.97
2023-04-25T18:53:44.334Z,60.67
2023-04-25T18:56:15.310Z,58.91
2023-04-25T18:58:46.097Z,59.08
2023-04-25T19:01:17.363Z,58.64
2023-04-25T19:03:53.584Z,57.80
2023-04-25T19:06:27.242Z,57.50
2023-04-25T19:08:59.174Z,57.44
2023-04-25T19:11:30.069Z,57.41
2023-04-25T19:14:01.203Z,57.47
2023-04-25T19:16:33.461Z,57.62
2023-04-25T19:19:06.600Z,57.68
2023-04-25T19:21:37.686Z,57.48
2023-04-25T19:24:09.663Z,57.66
2023-04-25T19:26:41.977Z,57.28
2023-04-25T19:29:14.703Z,56.66
2023-04-25T19:31:47.991Z,56.91
2023-04-25T19:34:20.212Z,57.11
2023-04-25T19:36:52.484Z,57.63
2023-04-25T19:39:24.353Z,57.34
2023-04-25T19:41:56.684Z,58.01
2023-04-25T19:44:28.150Z,58.15
2023-04-25T19:46:59.791Z,58.24
2023-04-25T19:49:30.853Z,58.52
2023-04-25T19:52:01.426Z,59.19
2023-04-25T19:54:32.475Z,59.43
2023-04-25T19:57:03.669Z,59.68
2023-04-25T19:59:34.211Z,59.78
2023-04-25T20:02:05.218Z,59.94
2023-04-25T20:04:36.178Z,60.74
2023-04-25T20:07:07.488Z,60.69
2023-04-25T20:09:39.511Z,61.13
2023-04-25T20:12:11.882Z,61.46
2023-04-25T20:14:43.022Z,62.01
2023-04-25T20:17:15.074Z,61.95
2023-04-25T20:19:46.178Z,62.34
2023-04-25T20:22:17.430Z,62.63
2023-04-25T20:24:48.002Z,62.45
2023-04-25T20:27:18.602Z,62.81
2023-04-25T20:29:50.215Z,62.84
2023-04-25T20:32:20.899Z,62.99
2023-04-25T20:34:51.623Z,62.76
2023-04-25T20:37:22.096Z,63.20
2023-04-25T20:39:52.764Z,63.44
2023-04-25T20:42:23.285Z,63.46
2023-04-25T20:44:56.224Z,63.57
2023-04-25T20:47:27.523Z,63.65
2023-04-25T20:49:59.944Z,63.96
2023-04-25T20:52:32.869Z,64.18
2023-04-25T20:55:03.940Z,64.07
2023-04-25T20:57:34.608Z,64.24
2023-04-25T21:00:09.906Z,64.31
2023-04-25T21:02:40.601Z,64.20
2023-04-25T21:05:11.832Z,64.00
2023-04-25T21:07:42.915Z,64.09
2023-04-25T21:10:15.027Z,63.90
2023-04-25T21:12:47.938Z,63.80
2023-04-25T21:15:22.848Z,63.88
2023-04-25T21:17:53.433Z,63.66
2023-04-25T21:20:24.678Z,64.20
2023-04-25T21:22:57.004Z,64.14
2023-04-25T21:25:32.280Z,64.41
2023-04-25T21:28:02.916Z,64.34
2023-04-25T21:30:33.612Z,64.88
2023-04-25T21:33:04.881Z,64.80
2023-04-25T21:35:35.942Z,64.64
2023-04-25T21:38:08.692Z,64.42
2023-04-25T21:40:40.898Z,64.72
2023-04-25T21:43:11.521Z,64.30
2023-04-25T21:45:59.537Z,64.53
2023-04-25T21:48:15.347Z,64.83
2023-04-25T21:50:45.886Z,64.63
2023-04-25T21:53:16.463Z,64.94
2023-04-25T21:55:47.124Z,65.09
2023-04-25T21:58:17.641Z,64.87
2023-04-25T22:00:49.078Z,65.08
2023-04-25T22:03:20.289Z,65.41
2023-04-25T22:05:51.067Z,65.73
2023-04-25T22:08:21.922Z,65.83
2023-04-25T22:10:55.103Z,65.92
2023-04-25T22:13:26.027Z,65.80
2023-04-25T22:15:59.395Z,65.57
2023-04-25T22:18:31.519Z,66.05
2023-04-25T22:21:03.626Z,66.34
2023-04-25T22:23:34.993Z,66.57
2023-04-25T22:26:05.999Z,66.49
2023-04-25T22:28:36.564Z,67.21
2023-04-25T22:31:07.517Z,67.17
2023-04-25T22:33:38.323Z,67.00
2023-04-25T22:36:09.473Z,67.33
2023-04-25T22:38:41.317Z,67.71
2023-04-25T22:41:11.902Z,67.98
2023-04-25T22:43:42.563Z,67.86
2023-04-25T22:46:20.650Z,68.04
2023-04-25T22:48:51.446Z,68.09
2023-04-25T22:51:22.256Z,67.73
2023-04-25T22:53:53.371Z,68.00
2023-04-25T22:56:24.695Z,68.21
2023-04-25T22:58:55.179Z,68.66
2023-04-25T23:01:25.909Z,68.99
2023-04-25T23:03:57.761Z,69.15
2023-04-25T23:06:28.778Z,68.90
2023-04-25T23:09:00.538Z,69.18
2023-04-25T23:11:32.091Z,69.01
2023-04-25T23:14:03.769Z,69.29
2023-04-25T23:16:35.425Z,69.71
2023-04-25T23:19:05.956Z,71.86
2023-04-25T23:21:36.429Z,69.97
2023-04-25T23:24:07.356Z,68.64
2023-04-25T23:26:38.687Z,68.98
2023-04-25T23:29:10.642Z,69.70
2023-04-25T23:31:41.538Z,69.79
2023-04-25T23:34:12.753Z,70.16
2023-04-25T23:36:43.281Z,70.55
2023-04-25T23:39:15.466Z,70.82
2023-04-25T23:41:46.387Z,70.74
2023-04-25T23:44:18.363Z,70.81
2023-04-25T23:46:49.290Z,71.19
2023-04-25T23:49:20.528Z,71.11
2023-04-25T23:51:52.395Z,71.10
2023-04-25T23:54:23.859Z,71.51
2023-04-25T23:56:54.628Z,71.58
2023-04-25T23:59:25.194Z,71.90
